createdAt,value
2017-08-21T00:00:57.234Z,16.20
2017-08-21T00:03:23.456Z,16.20
2017-08-21T00:05:49.641Z,16.20
2017-08-21T00:08:15.870Z,16.10
2017-08-21T00:10:42.812Z,16.10
2017-08-21T00:13:09.054Z,16.10
2017-08-21T00:15:35.946Z,16.10
2017-08-21T00:18:02.188Z,16.10
2017-08-21T00:20:28.383Z,16.10
2017-08-21T00:22:54.584Z,16.10
2017-08-21T00:25:21.558Z,16.10
2017-08-21T00:27:47.738Z,16.10
2017-08-21T00:30:13.920Z,16.20
2017-08-21T00:32:40.135Z,16.20
2017-08-21T00:35:07.055Z,16.20
2017-08-21T00:37:34.014Z,16.20
2017-08-21T00:40:00.998Z,16.10
2017-08-21T00:42:28.306Z,16.00
2017-08-21T00:44:55.246Z,16.00
2017-08-21T00:47:21.414Z,16.10
2017-08-21T00:49:47.607Z,16.10
2017-08-21T00:52:13.852Z,16.10
2017-08-21T00:54:40.800Z,16.10
2017-08-21T00:57:07.723Z,16.20
2017-08-21T00:59:34.797Z,16.10
2017-08-21T01:02:01.054Z,16.20
2017-08-21T01:04:27.310Z,16.20
2017-08-21T01:06:53.503Z,16.30
2017-08-21T01:09:19.712Z,16.30
2017-08-21T01:11:46.600Z,16.30
2017-08-21T01:14:12.803Z,16.20
2017-08-21T01:16:38.991Z,16.20
2017-08-21T01:19:05.174Z,16.00
2017-08-21T01:21:31.387Z,16.00
2017-08-21T01:23:57.611Z,16.00
2017-08-21T01:26:23.806Z,16.00
2017-08-21T01:28:49.979Z,16.00
2017-08-21T01:31:16.201Z,15.90
2017-08-21T01:33:42.351Z,15.90
2017-08-21T01:36:08.596Z,16.00
2017-08-21T01:38:35.626Z,16.00
2017-08-21T01:41:01.787Z,15.90
2017-08-21T01:43:27.966Z,15.90
2017-08-21T01:45:54.210Z,16.20
2017-08-21T01:48:20.382Z,15.80
2017-08-21T01:50:47.322Z,15.80
2017-08-21T01:53:13.514Z,15.80
2017-08-21T01:55:39.734Z,15.80
2017-08-21T01:58:05.910Z,15.90
2017-08-21T02:00:32.096Z,16.00
2017-08-21T02:02:58.298Z,16.20
2017-08-21T02:05:24.475Z,16.30
2017-08-21T02:07:51.435Z,16.30
2017-08-21T02:10:17.600Z,16.20
2017-08-21T02:12:43.776Z,16.10
2017-08-21T02:15:10.006Z,16.00
2017-08-21T02:17:36.276Z,16.00
2017-08-21T02:20:02.506Z,15.90
2017-08-21T02:22:29.422Z,15.90
2017-08-21T02:24:55.604Z,15.90
2017-08-21T02:27:21.780Z,15.90
2017-08-21T02:29:47.967Z,15.90
2017-08-21T02:32:14.204Z,15.80
2017-08-21T02:34:40.411Z,15.80
2017-08-21T02:37:06.594Z,15.70
2017-08-21T02:39:33.583Z,15.60
2017-08-21T02:41:59.747Z,15.60
2017-08-21T02:44:25.924Z,15.60
2017-08-21T02:46:52.089Z,15.60
2017-08-21T02:49:18.342Z,15.60
2017-08-21T02:51:44.516Z,15.60
2017-08-21T02:54:10.703Z,15.70
2017-08-21T02:56:36.935Z,15.70
2017-08-21T02:59:03.132Z,15.60
2017-08-21T03:01:29.344Z,15.60
2017-08-21T03:03:55.503Z,15.60
2017-08-21T03:06:21.717Z,15.50
2017-08-21T03:08:47.919Z,15.40
2017-08-21T03:11:14.107Z,15.40
2017-08-21T03:13:40.303Z,15.50
2017-08-21T03:16:06.486Z,15.50
2017-08-21T03:21:01.987Z,15.20
2017-08-21T03:23:28.152Z,15.30
2017-08-21T03:25:54.405Z,15.10
2017-08-21T03:28:20.603Z,15.20
2017-08-21T03:30:48.356Z,15.30
2017-08-21T03:33:15.328Z,15.30
2017-08-21T03:35:42.275Z,15.30
2017-08-21T03:38:08.458Z,15.50
2017-08-21T03:40:34.706Z,15.50
2017-08-21T03:43:01.648Z,15.80
2017-08-21T03:45:29.507Z,15.60
2017-08-21T03:47:55.695Z,15.50
2017-08-21T03:50:21.862Z,15.50
2017-08-21T03:52:48.044Z,15.40
2017-08-21T03:55:14.258Z,15.40
2017-08-21T03:57:40.406Z,15.40
2017-08-21T04:00:06.558Z,15.40
2017-08-21T04:02:32.744Z,15.40
2017-08-21T04:04:58.906Z,15.50
2017-08-21T04:07:25.086Z,15.50
2017-08-21T04:09:52.011Z,15.40
2017-08-21T04:12:18.921Z,15.30
2017-08-21T04:14:45.834Z,15.30
2017-08-21T04:17:12.021Z,15.20
2017-08-21T04:19:38.187Z,15.20
2017-08-21T04:22:04.353Z,15.10
2017-08-21T04:24:30.550Z,15.10
2017-08-21T04:26:56.734Z,15.10
2017-08-21T04:29:22.917Z,15.10
2017-08-21T04:31:49.090Z,15.00
2017-08-21T04:34:16.010Z,15.00
2017-08-21T04:36:42.222Z,15.00
2017-08-21T04:39:08.387Z,15.10
2017-08-21T04:41:34.562Z,15.00
2017-08-21T04:44:00.777Z,15.00
2017-08-21T04:46:26.935Z,15.10
2017-08-21T04:48:53.160Z,15.20
2017-08-21T04:51:20.228Z,15.20
2017-08-21T04:53:46.398Z,15.20
2017-08-21T04:56:13.331Z,15.10
2017-08-21T04:58:39.538Z,15.10
2017-08-21T05:01:05.702Z,15.40
2017-08-21T05:03:33.556Z,15.60
2017-08-21T05:06:00.598Z,15.70
2017-08-21T05:08:26.803Z,15.60
2017-08-21T05:10:52.996Z,15.60
2017-08-21T05:13:21.794Z,15.70
2017-08-21T05:15:48.008Z,15.80
2017-08-21T05:18:14.181Z,16.00
2017-08-21T05:20:41.145Z,15.90
2017-08-21T05:23:07.307Z,15.90
2017-08-21T05:25:33.504Z,16.00
2017-08-21T05:27:59.714Z,16.00
2017-08-21T05:30:25.928Z,15.70
2017-08-21T05:32:52.178Z,15.60
2017-08-21T05:35:18.377Z,15.60
2017-08-21T05:37:44.595Z,15.60
2017-08-21T05:40:10.751Z,15.60
2017-08-21T05:42:36.946Z,15.60
2017-08-21T05:45:03.159Z,15.60
2017-08-21T05:47:30.442Z,15.70
2017-08-21T05:49:56.602Z,15.70
2017-08-21T05:52:22.761Z,16.00
2017-08-21T05:54:49.736Z,16.10
2017-08-21T05:57:15.910Z,16.00
2017-08-21T06:09:32.143Z,16.40
2017-08-21T06:11:58.344Z,16.40
2017-08-21T06:14:24.521Z,16.50
2017-08-21T06:16:50.709Z,16.60
2017-08-21T06:19:16.935Z,16.60
2017-08-21T06:21:43.095Z,16.50
2017-08-21T06:24:09.306Z,16.50
2017-08-21T06:26:35.475Z,16.40
2017-08-21T06:29:01.683Z,16.50
2017-08-21T06:31:27.857Z,16.80
2017-08-21T06:33:54.067Z,16.80
2017-08-21T06:36:20.991Z,16.80
2017-08-21T06:38:47.242Z,17.00
2017-08-21T06:41:13.426Z,17.10
2017-08-21T06:43:40.441Z,17.20
2017-08-21T06:46:06.634Z,17.30
2017-08-21T06:48:32.810Z,17.30
2017-08-21T06:50:59.014Z,17.30
2017-08-21T06:53:25.939Z,17.30
2017-08-21T06:55:52.143Z,17.30
2017-08-21T06:58:18.342Z,17.80
2017-08-21T07:00:44.545Z,18.10
2017-08-21T07:03:12.155Z,18.40
2017-08-21T07:05:38.349Z,18.50
2017-08-21T07:08:04.541Z,19.90
2017-08-21T07:10:31.508Z,20.40
2017-08-21T07:12:58.423Z,20.50
2017-08-21T07:15:24.584Z,20.50
2017-08-21T07:17:51.153Z,20.50
2017-08-21T07:20:17.359Z,20.90
2017-08-21T07:22:43.575Z,21.10
2017-08-21T07:25:10.508Z,21.30
2017-08-21T07:27:36.744Z,20.90
2017-08-21T07:30:03.751Z,20.40
2017-08-21T07:32:29.951Z,20.30
2017-08-21T07:34:56.851Z,20.50
2017-08-21T07:37:23.061Z,21.20
2017-08-21T07:39:49.304Z,21.80
2017-08-21T07:42:15.724Z,22.10
2017-08-21T07:44:41.925Z,22.50
2017-08-21T07:47:09.210Z,23.10
2017-08-21T07:49:35.422Z,23.10
2017-08-21T07:52:01.639Z,23.20
2017-08-21T07:54:27.835Z,23.30
2017-08-21T07:56:54.822Z,23.80
2017-08-21T07:59:21.038Z,24.00
2017-08-21T08:01:47.237Z,24.20
2017-08-21T08:04:14.149Z,24.30
2017-08-21T08:06:40.345Z,24.40
2017-08-21T08:09:06.543Z,24.50
2017-08-21T08:11:33.474Z,24.80
2017-08-21T08:14:00.422Z,25.00
2017-08-21T08:16:27.349Z,25.20
2017-08-21T08:18:53.550Z,25.20
2017-08-21T08:21:19.745Z,25.70
2017-08-21T08:23:45.953Z,25.30
2017-08-21T08:26:12.903Z,25.50
2017-08-21T08:28:39.855Z,25.40
2017-08-21T08:31:06.842Z,24.90
2017-08-21T08:33:33.002Z,24.70
2017-08-21T08:35:59.205Z,24.30
2017-08-21T08:38:25.372Z,23.90
2017-08-21T08:40:52.362Z,24.10
2017-08-21T08:43:18.644Z,24.30
2017-08-21T08:45:45.591Z,24.30
2017-08-21T08:48:12.515Z,24.20
2017-08-21T08:50:38.716Z,24.20
2017-08-21T08:53:04.902Z,24.40
2017-08-21T08:55:32.644Z,25.00
2017-08-21T08:57:58.856Z,25.00
2017-08-21T09:00:25.483Z,25.20
2017-08-21T09:02:52.466Z,25.40
2017-08-21T09:05:18.737Z,25.30
2017-08-21T09:07:44.921Z,25.30
2017-08-21T09:10:11.142Z,25.50
2017-08-21T09:12:38.205Z,25.50
2017-08-21T09:15:04.386Z,25.60
2017-08-21T09:17:30.601Z,25.80
2017-08-21T09:19:56.761Z,25.70
2017-08-21T09:22:22.956Z,25.60
2017-08-21T09:24:49.883Z,25.60
2017-08-21T09:27:16.421Z,25.60
2017-08-21T09:29:43.367Z,25.80
2017-08-21T09:32:11.535Z,25.40
2017-08-21T09:34:38.401Z,25.10
2017-08-21T09:37:04.733Z,25.00
2017-08-21T09:39:30.936Z,25.00
2017-08-21T09:41:58.847Z,25.10
2017-08-21T09:44:25.127Z,25.30
2017-08-21T09:46:52.063Z,24.80
2017-08-21T09:49:18.248Z,24.30
2017-08-21T09:51:44.463Z,24.10
2017-08-21T09:54:10.667Z,24.40
2017-08-21T09:56:38.414Z,24.90
2017-08-21T09:59:04.615Z,25.30
2017-08-21T10:01:30.817Z,25.70
2017-08-21T10:03:57.024Z,25.60
2017-08-21T10:06:23.235Z,25.20
2017-08-21T10:08:49.454Z,24.80
2017-08-21T10:11:15.687Z,25.10
2017-08-21T10:13:41.950Z,24.60
2017-08-21T10:16:08.245Z,25.10
2017-08-21T10:18:34.418Z,25.10
2017-08-21T10:21:00.565Z,25.00
2017-08-21T10:23:26.765Z,24.90
2017-08-21T10:25:52.928Z,24.90
2017-08-21T10:28:19.112Z,24.90
2017-08-21T10:30:45.290Z,24.20
2017-08-21T10:33:11.805Z,24.20
2017-08-21T10:35:38.014Z,24.10
2017-08-21T10:38:04.205Z,24.10
2017-08-21T10:40:30.423Z,23.90
2017-08-21T10:42:56.606Z,23.60
2017-08-21T10:45:22.801Z,23.50
2017-08-21T10:47:49.722Z,23.40
2017-08-21T10:50:16.026Z,23.40
2017-08-21T10:52:42.228Z,24.30
2017-08-21T10:55:08.442Z,24.80
2017-08-21T10:57:35.348Z,26.20
2017-08-21T11:00:01.557Z,26.20
2017-08-21T11:02:27.802Z,26.20
2017-08-21T11:04:54.003Z,26.10
2017-08-21T11:07:20.228Z,26.10
2017-08-21T11:09:46.473Z,26.10
2017-08-21T11:12:12.637Z,26.50
2017-08-21T11:14:38.827Z,26.40
2017-08-21T11:17:04.994Z,26.40
2017-08-21T11:19:31.203Z,27.10
2017-08-21T11:21:57.418Z,27.40
2017-08-21T11:24:23.633Z,27.40
2017-08-21T11:26:49.822Z,27.40
2017-08-21T11:29:16.755Z,27.30
2017-08-21T11:31:42.989Z,27.30
2017-08-21T11:34:09.234Z,27.00
2017-08-21T11:36:36.219Z,27.30
2017-08-21T11:39:02.442Z,27.20
2017-08-21T11:41:28.628Z,27.00
2017-08-21T11:43:54.799Z,26.50
2017-08-21T11:46:21.036Z,25.80
2017-08-21T11:48:47.214Z,25.10
2017-08-21T11:51:14.111Z,24.50
2017-08-21T11:53:40.405Z,24.40
2017-08-21T12:05:57.334Z,23.50
2017-08-21T12:08:23.507Z,23.50
2017-08-21T12:10:50.437Z,24.10
2017-08-21T12:13:16.643Z,24.00
2017-08-21T12:15:42.803Z,24.10
2017-08-21T12:18:09.785Z,25.50
2017-08-21T12:20:35.974Z,25.50
2017-08-21T12:23:02.191Z,25.30
2017-08-21T12:25:28.362Z,25.60
2017-08-21T12:27:54.568Z,26.30
2017-08-21T12:30:21.505Z,26.30
2017-08-21T12:32:48.470Z,25.60
2017-08-21T12:35:14.659Z,25.60
2017-08-21T12:37:41.872Z,25.00
2017-08-21T12:40:08.082Z,24.50
2017-08-21T12:42:35.199Z,24.10
2017-08-21T12:45:01.374Z,23.80
2017-08-21T12:47:27.861Z,23.70
2017-08-21T12:49:54.065Z,23.60
2017-08-21T12:52:20.233Z,23.50
2017-08-21T12:54:47.997Z,24.50
2017-08-21T12:57:14.167Z,24.50
2017-08-21T12:59:40.327Z,25.00
2017-08-21T13:02:06.531Z,25.50
2017-08-21T13:04:32.746Z,26.60
2017-08-21T13:06:58.912Z,27.40
2017-08-21T13:09:25.140Z,28.10
2017-08-21T13:11:51.326Z,28.10
2017-08-21T13:14:17.871Z,27.00
2017-08-21T13:16:44.083Z,26.40
2017-08-21T13:19:10.659Z,25.60
2017-08-21T13:21:36.860Z,25.00
2017-08-21T13:24:03.085Z,25.00
2017-08-21T13:26:29.343Z,24.60
2017-08-21T13:28:55.600Z,24.40
2017-08-21T13:31:21.826Z,24.20
2017-08-21T13:33:47.998Z,24.20
2017-08-21T13:36:14.202Z,24.20
2017-08-21T13:38:41.188Z,24.30
2017-08-21T13:41:08.191Z,24.30
2017-08-21T13:43:35.122Z,24.00
2017-08-21T13:46:02.247Z,24.00
2017-08-21T13:48:28.446Z,23.80
2017-08-21T13:50:54.675Z,23.70
2017-08-21T13:53:20.903Z,23.60
2017-08-21T13:55:47.475Z,23.40
2017-08-21T13:58:13.691Z,23.60
2017-08-21T14:00:41.015Z,24.20
2017-08-21T14:03:07.206Z,24.20
2017-08-21T14:05:33.407Z,24.20
2017-08-21T14:07:59.631Z,24.20
2017-08-21T14:10:25.796Z,24.10
2017-08-21T14:12:52.767Z,24.00
2017-08-21T14:15:18.993Z,23.90
2017-08-21T14:17:45.198Z,24.30
2017-08-21T14:20:11.418Z,23.70
2017-08-21T14:22:37.637Z,23.70
2017-08-21T14:25:03.835Z,23.70
2017-08-21T14:27:30.002Z,23.60
2017-08-21T14:29:56.199Z,23.60
2017-08-21T14:32:22.388Z,23.60
2017-08-21T14:34:49.414Z,23.40
2017-08-21T14:37:15.611Z,23.40
2017-08-21T14:39:42.825Z,23.40
2017-08-21T14:42:10.222Z,23.50
2017-08-21T14:44:36.643Z,23.60
2017-08-21T14:47:02.844Z,23.60
2017-08-21T14:49:29.049Z,23.70
2017-08-21T14:51:55.238Z,23.80
2017-08-21T14:54:21.441Z,24.00
2017-08-21T14:56:47.828Z,24.00
2017-08-21T14:59:14.086Z,23.90
2017-08-21T15:01:41.019Z,24.00
2017-08-21T15:04:08.014Z,23.80
2017-08-21T15:06:34.212Z,23.80
2017-08-21T15:09:00.453Z,23.70
2017-08-21T15:11:27.215Z,23.70
2017-08-21T15:13:53.457Z,23.60
2017-08-21T15:16:19.681Z,23.40
2017-08-21T15:18:45.948Z,23.40
2017-08-21T15:21:12.896Z,23.40
2017-08-21T15:23:39.820Z,23.50
2017-08-21T15:26:06.064Z,23.40
2017-08-21T15:28:32.235Z,23.40
2017-08-21T15:30:58.426Z,23.40
2017-08-21T15:33:24.642Z,23.40
2017-08-21T15:35:50.895Z,23.40
2017-08-21T15:38:17.833Z,23.30
2017-08-21T15:40:46.198Z,23.20
2017-08-21T15:43:12.646Z,23.20
2017-08-21T15:45:40.339Z,23.20
2017-08-21T15:48:07.361Z,23.10
2017-08-21T15:50:34.348Z,23.10
2017-08-21T15:53:01.275Z,23.00
2017-08-21T15:55:28.362Z,23.00
2017-08-21T15:57:56.783Z,23.00
2017-08-21T16:00:24.471Z,22.90
2017-08-21T16:02:50.668Z,22.90
2017-08-21T16:05:16.891Z,22.90
2017-08-21T16:07:43.092Z,22.90
2017-08-21T16:10:09.274Z,22.90
2017-08-21T16:12:35.756Z,22.90
2017-08-21T16:15:01.965Z,22.90
2017-08-21T16:17:28.211Z,22.80
2017-08-21T16:19:54.382Z,22.80
2017-08-21T16:22:20.570Z,22.70
2017-08-21T16:24:46.804Z,22.80
2017-08-21T16:27:13.998Z,22.80
2017-08-21T16:29:40.958Z,22.70
2017-08-21T16:32:07.498Z,22.70
2017-08-21T16:34:33.708Z,22.70
2017-08-21T16:37:00.634Z,22.70
2017-08-21T16:39:26.835Z,22.60
2017-08-21T16:41:53.038Z,22.60
2017-08-21T16:44:19.231Z,22.60
2017-08-21T16:46:46.166Z,22.60
2017-08-21T16:49:12.358Z,22.60
2017-08-21T16:51:38.546Z,22.50
2017-08-21T16:54:04.803Z,22.50
2017-08-21T16:56:31.141Z,22.50
2017-08-21T16:58:57.381Z,22.50
2017-08-21T17:01:23.576Z,22.40
2017-08-21T17:03:49.826Z,22.40
2017-08-21T17:06:16.030Z,22.40
2017-08-21T17:08:42.227Z,22.20
2017-08-21T17:11:09.396Z,22.20
2017-08-21T17:13:36.672Z,22.10
2017-08-21T17:16:02.867Z,22.10
2017-08-21T17:18:30.667Z,22.00
2017-08-21T17:20:57.231Z,22.00
2017-08-21T17:23:23.482Z,21.90
2017-08-21T17:25:50.034Z,21.90
2017-08-21T17:28:16.353Z,22.00
2017-08-21T17:30:42.582Z,21.80
2017-08-21T17:33:08.758Z,21.80
2017-08-21T17:35:34.986Z,21.70
2017-08-21T17:38:38.694Z,21.60
2017-08-21T17:41:04.907Z,22.20
2017-08-21T17:43:31.268Z,21.60
2017-08-21T17:45:57.464Z,21.50
2017-08-21T17:48:23.636Z,21.40
2017-08-21T17:50:49.868Z,21.40
2017-08-21T17:53:16.081Z,21.30
2017-08-21T17:55:42.289Z,21.30
2017-08-21T17:58:08.514Z,21.30
2017-08-21T18:00:34.718Z,21.20
2017-08-21T18:03:00.927Z,21.10
2017-08-21T18:05:27.875Z,21.10
2017-08-21T18:07:54.084Z,21.10
2017-08-21T18:10:20.337Z,21.00
2017-08-21T18:12:46.572Z,21.00
2017-08-21T18:15:12.769Z,21.00
2017-08-21T18:17:38.962Z,20.90
2017-08-21T18:20:05.135Z,20.80
2017-08-21T18:22:31.309Z,20.80
2017-08-21T18:24:57.574Z,20.70
2017-08-21T18:27:23.798Z,20.70
2017-08-21T18:29:50.024Z,20.80
2017-08-21T18:32:16.211Z,20.70
2017-08-21T18:44:27.478Z,20.70
2017-08-21T18:46:53.672Z,20.60
2017-08-21T18:49:20.762Z,20.60
2017-08-21T18:51:48.175Z,20.50
2017-08-21T18:54:14.410Z,20.50
2017-08-21T18:56:40.628Z,20.40
2017-08-21T18:59:06.863Z,20.40
2017-08-21T19:01:33.101Z,20.40
2017-08-21T19:03:59.389Z,20.40
2017-08-21T19:06:25.601Z,20.30
2017-08-21T19:08:51.800Z,20.30
2017-08-21T19:11:18.214Z,20.20
2017-08-21T19:13:44.407Z,20.20
2017-08-21T19:16:10.624Z,20.10
2017-08-21T19:18:36.838Z,20.10
2017-08-21T19:21:03.143Z,20.10
2017-08-21T19:23:29.392Z,20.10
2017-08-21T19:25:55.594Z,20.10
2017-08-21T19:28:21.840Z,20.10
2017-08-21T19:30:48.498Z,20.10
2017-08-21T19:33:14.795Z,19.80
2017-08-21T19:35:41.997Z,19.80
2017-08-21T19:38:08.269Z,19.80
2017-08-21T19:40:34.471Z,19.70
2017-08-21T19:43:00.650Z,19.60
2017-08-21T19:45:26.983Z,19.60
2017-08-21T19:47:53.180Z,19.60
2017-08-21T19:50:19.380Z,19.60
2017-08-21T19:52:45.616Z,19.60
2017-08-21T19:55:11.883Z,19.50
2017-08-21T19:57:38.065Z,19.40
2017-08-21T20:00:04.241Z,19.40
2017-08-21T20:02:30.459Z,19.40
2017-08-21T20:04:56.678Z,19.40
2017-08-21T20:07:22.958Z,19.40
2017-08-21T20:09:49.235Z,19.40
2017-08-21T20:12:15.499Z,19.40
2017-08-21T20:14:41.777Z,19.40
2017-08-21T20:17:07.985Z,19.40
2017-08-21T20:19:34.896Z,19.30
2017-08-21T20:22:04.138Z,19.20
2017-08-21T20:24:31.393Z,19.20
2017-08-21T20:26:57.648Z,19.10
2017-08-21T20:29:29.364Z,19.10
2017-08-21T20:31:55.643Z,18.90
2017-08-21T20:34:22.041Z,18.80
2017-08-21T20:36:48.263Z,18.80
2017-08-21T20:39:14.700Z,18.70
2017-08-21T20:41:40.916Z,18.70
2017-08-21T20:44:07.136Z,18.70
2017-08-21T20:46:33.365Z,18.70
2017-08-21T20:49:00.191Z,18.70
2017-08-21T20:51:27.421Z,18.60
2017-08-21T20:53:53.640Z,18.50
2017-08-21T20:56:19.839Z,18.60
2017-08-21T20:58:47.459Z,18.60
2017-08-21T21:04:02.805Z,18.60
2017-08-21T21:06:29.028Z,18.60
2017-08-21T21:08:55.235Z,18.50
2017-08-21T21:11:21.426Z,18.50
2017-08-21T21:13:47.589Z,18.50
2017-08-21T21:16:13.810Z,18.50
2017-08-21T21:18:40.036Z,18.30
2017-08-21T21:21:06.257Z,18.30
2017-08-21T21:23:47.390Z,18.30
2017-08-21T21:26:13.593Z,18.30
2017-08-21T21:28:39.770Z,18.30
2017-08-21T21:31:05.924Z,18.30
2017-08-21T21:33:32.113Z,18.30
2017-08-21T21:35:58.328Z,18.20
2017-08-21T21:38:24.542Z,18.10
2017-08-21T21:40:51.508Z,18.10
2017-08-21T21:43:17.720Z,18.00
2017-08-21T21:45:43.964Z,17.90
2017-08-21T21:48:10.128Z,17.80
2017-08-21T21:50:36.383Z,17.80
2017-08-21T21:53:02.594Z,17.80
2017-08-21T21:55:28.772Z,17.90
2017-08-21T21:57:54.954Z,17.80
2017-08-21T22:00:21.126Z,17.80
2017-08-21T22:02:47.711Z,17.80
2017-08-21T22:05:13.927Z,17.80
2017-08-21T22:07:40.115Z,17.80
2017-08-21T22:10:06.337Z,17.70
2017-08-21T22:12:32.544Z,17.60
2017-08-21T22:14:58.719Z,17.60
2017-08-21T22:17:25.470Z,17.60
2017-08-21T22:19:51.629Z,17.70
2017-08-21T22:22:18.676Z,17.70
2017-08-21T22:24:44.885Z,17.70
2017-08-21T22:27:11.062Z,17.80
2017-08-21T22:29:37.275Z,17.80
2017-08-21T22:32:03.501Z,17.80
2017-08-21T22:34:29.946Z,17.80
2017-08-21T22:36:56.134Z,17.60
2017-08-21T22:39:22.300Z,17.60
2017-08-21T22:41:48.530Z,17.60
2017-08-21T22:44:14.709Z,17.50
2017-08-21T22:46:41.065Z,17.60
2017-08-21T22:49:07.240Z,17.60
2017-08-21T22:51:33.416Z,17.60
2017-08-21T22:53:59.654Z,17.60
2017-08-21T22:56:25.853Z,17.50
2017-08-21T22:58:52.063Z,17.50
2017-08-21T23:01:18.232Z,17.50
2017-08-21T23:03:44.414Z,17.50
2017-08-21T23:06:10.588Z,17.50
2017-08-21T23:08:36.793Z,17.50
2017-08-21T23:11:03.030Z,17.50
2017-08-21T23:13:29.199Z,17.50
2017-08-21T23:15:55.371Z,17.50
2017-08-21T23:18:21.554Z,17.40
2017-08-21T23:20:47.791Z,17.40
2017-08-21T23:23:13.980Z,17.40
2017-08-21T23:25:40.181Z,17.30
2017-08-21T23:28:06.338Z,17.30
2017-08-21T23:30:32.538Z,17.30
2017-08-21T23:32:58.742Z,17.20
2017-08-21T23:35:25.337Z,17.20
2017-08-21T23:37:51.526Z,17.20
2017-08-21T23:40:17.738Z,17.20
2017-08-21T23:42:43.883Z,17.20
2017-08-21T23:45:10.102Z,17.20
2017-08-21T23:47:36.954Z,17.20
2017-08-21T23:50:03.242Z,17.10
2017-08-21T23:52:29.427Z,17.10
2017-08-21T23:54:56.288Z,17.10
2017-08-21T23:57:22.500Z,17.00
2017-08-21T23:59:48.720Z,17.00
